Aviation Digital Data Service (ADDS)

Output produced by METARs form (2041 UTC 13 November 2019)
found at http://www.aviationweather.gov/metar/data/
 
LETO 132000Z 22005KT 9999 FEW065 10/06 Q1011 NOSIG
TAF LETO 131700Z 1318/1418 VRB05KT 9999 FEW050 TX12/1416Z TN06/1406Z 
     BECMG 1401/1404 24010KT 
     PROB30 
     TEMPO 1405/1418 3000 RA 
     TEMPO 1405/1418 23015G32KT
       
LEZG 132030Z 14003KT 100V160 CAVOK 09/07 Q1008
TAF LEZG 131700Z 1318/1418 VRB04KT 9999 FEW050 TX12/1414Z TN05/1406Z 
     TEMPO 1400/1405 22015G25KT 
     PROB40 
     TEMPO 1403/1409 5000 RA BKN014 
     TEMPO 1412/1416 25015G25KT
       
LERT 132000Z 24009KT 9999 FEW048 17/15 Q1016 NOSIG
TAF LERT 132000Z 1321/1406 24009KT 9999 FEW030 
     BECMG 1321/1323 31010KT
       
LELC 132030Z AUTO 13006KT 070V160 CAVOK 17/15 Q1012
TAF LELC 131700Z 1318/1418 VRB03KT CAVOK TX22/1413Z TN11/1406Z 
     BECMG 1406/1409 29012KT
       
LEAB 132000Z 26008KT 9999 FEW033 BKN040 12/09 Q1012 NOSIG
TAF LEAB 132000Z 1321/1406 25008KT 9999 BKN030 
     PROB30 
     TEMPO 1401/1406 BKN009
       
LEBZ 132000Z 25011KT CAVOK 14/10 Q1015
TAF LEBZ 131700Z 1318/1418 23008KT 9999 SCT035 TX15/1414Z TN13/1406Z 
     PROB40 
     TEMPO 1405/1415 3000 RA BR BKN014 
     BECMG 1408/1410 29012KT 
     PROB40 
     TEMPO 1412/1418 29015G25KT
       
LEMO 132000Z 22009KT 9999 BKN045 16/13 Q1016 NOSIG
TAF LEMO 132000Z 1321/1406 23009KT 9999 SCT030
       
LESA 132030Z AUTO 26011KT 6000 SCT022 08/06 Q1012
TAF LESA 131700Z 1318/1418 27007KT 9999 FEW030 TX08/1414Z TN03/1406Z 
     TEMPO 1403/1418 25015G30KT 3000 RA BKN008 
     PROB40 
     TEMPO 1410/1418 25025G40KT SHRA SCT008TCU
       
GCLP 132030Z 01025KT 9999 FEW025 21/13 Q1017 NOSIG
TAF GCLP 132000Z 1321/1421 01021KT 9999 SCT030 TX24/1414Z TN20/1406Z 
     PROB30 
     TEMPO 1321/1401 36022G32KT
       
LIED 131955Z 36003KT 6000 -RA SCT008 SCT020 BKN060 13/10 Q1006 RMK OVC VIS MIN 6000 WIND THR35 36003KT WIND THR17 /////KT WHT
LIPR 132020Z VRB02KT 9999 FEW025 08/07 Q1006
TAF LIPR 132000Z 1321/1406 VRB06KT 9999 FEW020